TimeMDT,TemperatureF,Dew PointF,Humidity,Sea Level PressureIn,VisibilityMPH,Wind Direction,Wind SpeedMPH,Gust SpeedMPH,PrecipitationIn,Events,Conditions,WindDirDegrees,DateUTC
12:56 AM,37.9,32.0,79,30.09,10.0,NNW,6.9,-,N/A,,Overcast,330,2012-10-11 06:56:00
1:56 AM,37.0,32.0,82,30.10,10.0,North,6.9,-,N/A,,Overcast,350,2012-10-11 07:56:00
2:42 AM,35.6,32.0,87,30.10,10.0,NW,6.9,-,N/A,,Mostly Cloudy,320,2012-10-11 08:42:00
2:56 AM,36.0,32.0,86,30.13,10.0,NW,6.9,-,N/A,,Overcast,320,2012-10-11 08:56:00
3:42 AM,37.4,33.8,87,30.13,10.0,NNW,9.2,-,N/A,,Overcast,330,2012-10-11 09:42:00
3:56 AM,36.0,32.0,86,30.16,9.0,North,11.5,-,0.00,Rain,Light Rain,10,2012-10-11 09:56:00
4:56 AM,34.0,30.9,89,30.19,7.0,North,17.3,-,0.00,,Overcast,10,2012-10-11 10:56:00
5:56 AM,33.1,30.0,89,30.25,10.0,NNE,10.4,-,N/A,,Overcast,20,2012-10-11 11:56:00
6:42 AM,33.8,30.2,87,30.21,10.0,North,8.1,-,N/A,,Overcast,10,2012-10-11 12:42:00
6:56 AM,33.1,28.9,85,30.27,10.0,NNW,6.9,-,N/A,,Overcast,340,2012-10-11 12:56:00
7:22 AM,33.8,28.4,81,30.23,10.0,North,9.2,-,N/A,,Overcast,360,2012-10-11 13:22:00
7:56 AM,33.1,28.0,82,30.30,10.0,North,8.1,-,N/A,,Overcast,350,2012-10-11 13:56:00
8:56 AM,35.1,28.0,76,30.33,10.0,North,10.4,-,N/A,,Overcast,360,2012-10-11 14:56:00
9:56 AM,36.0,25.0,64,30.35,10.0,North,6.9,-,N/A,,Partly Cloudy,360,2012-10-11 15:56:00
10:40 AM,35.6,26.6,70,30.30,10.0,NNW,5.8,-,N/A,,Mostly Cloudy,340,2012-10-11 16:40:00
10:56 AM,37.0,26.1,65,30.37,10.0,NNW,6.9,-,N/A,,Mostly Cloudy,340,2012-10-11 16:56:00
11:23 AM,37.4,26.6,65,30.30,10.0,NNW,5.8,-,N/A,,Overcast,340,2012-10-11 17:23:00
11:56 AM,37.9,26.1,62,30.36,10.0,NW,5.8,-,N/A,,Mostly Cloudy,320,2012-10-11 17:56:00
12:56 PM,37.9,24.1,57,30.35,10.0,North,5.8,-,N/A,,Overcast,350,2012-10-11 18:56:00
1:56 PM,39.0,24.1,55,30.34,10.0,Calm,Calm,-,N/A,,Overcast,0,2012-10-11 19:56:00
2:56 PM,39.9,24.1,53,30.34,10.0,Variable,3.5,-,N/A,,Overcast,0,2012-10-11 20:56:00
3:56 PM,39.9,23.0,51,30.34,10.0,NNW,3.5,-,N/A,,Overcast,340,2012-10-11 21:56:00
4:56 PM,39.0,23.0,53,30.33,10.0,NE,4.6,-,N/A,,Scattered Clouds,50,2012-10-11 22:56:00
5:56 PM,37.0,24.1,59,30.33,10.0,East,3.5,-,N/A,,Overcast,90,2012-10-11 23:56:00
7:56 PM,36.0,24.1,62,30.33,10.0,ESE,9.2,-,N/A,,Overcast,120,2012-10-12 01:56:00
8:56 PM,37.0,25.0,62,30.32,10.0,SE,10.4,-,N/A,,Overcast,130,2012-10-12 02:56:00
10:56 PM,36.0,25.0,64,30.28,10.0,SE,15.0,-,N/A,,Overcast,140,2012-10-12 04:56:00
11:56 PM,36.0,25.0,64,30.25,10.0,SSE,15.0,-,N/A,,Overcast,150,2012-10-12 05:56:00